Alexandria, LA

5:32 PM CST on March 01, 2015 (GMT -0600)
Alexandria International | Change Station
CLOSE
Current Station
Airport
Location: Alexandria,
Elevation: 89 ft
Nearby Weather Stations

Elev 89 ft 31.33 °N, 92.56 °W | Updated 6 minutes ago

Rain
Rain
55 °F
Feels Like 55 °F
N
6
Wind Variable Wind from NW

Today
High -- | Low -- °F
--% Chance of Precip.
Yesterday
High -- | Low -- °F
Precip. -- in
6:36 AM 6:07 PM
Waxing Gibbous, 88% visible
Pressure 30.22 in
Visibility 2.5 miles
Clouds Mostly Cloudy 300 ft
Mostly Cloudy 800 ft
Overcast 3400 ft
Dew Point 55 °F
Humidity 100%
Rainfall 2.27 in
Snow Depth Not available.
UV 0 out of 12
Pollen 7.00 out of 12
Air Quality Not available.
Flu Activity Not available.
SPECI KAEX 012326Z 32005KT 2 1/2SM -RA BR BKN003 BKN008 OVC034 13/13 A3022 RMK AO2 P0002 T01280128

More Conditions Fewer Conditions

Pressure 30.22 in
Visibility 2.5 miles
Clouds Mostly Cloudy 300 ft
Mostly Cloudy 800 ft
Overcast 3400 ft
Dew Point 55 °F
Humidity 100%
Rainfall 2.27 in
Snow Depth Not available.
UV 0 out of 12
Pollen 7.00 out of 12
Air Quality Not available.
Flu Activity Not available.
SPECI KAEX 012326Z 32005KT 2 1/2SM -RA BR BKN003 BKN008 OVC034 13/13 A3022 RMK AO2 P0002 T01280128

More Conditions Fewer Conditions

10-Day Weather Forecast

Almanac

Astronomy

Mar. 01, 2015 Rise Set
Actual Time
Civil Twilight
Nautical Twilight
Astronomical Twilight
Moon
Length of Visible Light
Length of Day
Tomorrow will be .
, % of the Moon is Illuminated

Today's Extremes

State Highs State Lows

Community

WunderPhotos

Upload Photos

1,801,610 photos uploaded!

WunderBlogs® & News

Nearby

Air Quality

  Air Quality AQ Index Pollutant
Not available.

Snow Depth

Station Depth Elevation

Earthquake Activity

City Distance Mag. Time & Date
Minimum magnitude displayed is 2.5.

Coastal Water Temperatures

Place Temperature

Nearby Weather Stations